Aviation Digital Data Service (ADDS)

Output produced by METARs form (1007 UTC 19 November 2018)
found at http://www.aviationweather.gov/metar/data/
 
KSTC 190520Z 1906/2006 01006KT 6SM -SN OVC035 
     TEMPO 1907/1910 2SM -SN OVC025 
     FM191100 35007G13KT P6SM BKN015 
     FM191900 34011G18KT P6SM SCT025 
     FM192300 34008KT P6SM SKC